sensor_id;sensor_type;location;lat;lon;timestamp;P1;durP1;ratioP1;P2;durP2;ratioP2
3627;SDS011;1830;49.000;12.074;2023-11-19T00:02:20;3.13;;;2.93;;
3627;SDS011;1830;49.000;12.074;2023-11-19T00:04:46;4.30;;;3.63;;
3627;SDS011;1830;49.000;12.074;2023-11-19T00:07:13;4.17;;;3.50;;
3627;SDS011;1830;49.000;12.074;2023-11-19T00:09:42;3.93;;;3.40;;
3627;SDS011;1830;49.000;12.074;2023-11-19T00:12:09;5.20;;;3.00;;
3627;SDS011;1830;49.000;12.074;2023-11-19T00:14:35;3.03;;;2.83;;
3627;SDS011;1830;49.000;12.074;2023-11-19T00:17:02;3.97;;;3.57;;
3627;SDS011;1830;49.000;12.074;2023-11-19T00:19:30;5.27;;;3.43;;
3627;SDS011;1830;49.000;12.074;2023-11-19T00:21:56;4.50;;;3.30;;
3627;SDS011;1830;49.000;12.074;2023-11-19T00:24:27;3.53;;;3.23;;
3627;SDS011;1830;49.000;12.074;2023-11-19T00:26:55;3.60;;;3.30;;
3627;SDS011;1830;49.000;12.074;2023-11-19T00:29:22;7.93;;;3.60;;
3627;SDS011;1830;49.000;12.074;2023-11-19T00:31:49;3.80;;;3.50;;
3627;SDS011;1830;49.000;12.074;2023-11-19T00:34:16;3.90;;;3.60;;
3627;SDS011;1830;49.000;12.074;2023-11-19T00:36:46;3.90;;;3.60;;
3627;SDS011;1830;49.000;12.074;2023-11-19T00:39:13;3.53;;;3.23;;
3627;SDS011;1830;49.000;12.074;2023-11-19T00:41:40;11.93;;;3.87;;
3627;SDS011;1830;49.000;12.074;2023-11-19T00:44:09;3.60;;;3.37;;
3627;SDS011;1830;49.000;12.074;2023-11-19T00:46:35;4.67;;;3.70;;
3627;SDS011;1830;49.000;12.074;2023-11-19T00:49:03;4.40;;;4.00;;
3627;SDS011;1830;49.000;12.074;2023-11-19T00:51:30;4.70;;;4.20;;
3627;SDS011;1830;49.000;12.074;2023-11-19T00:53:57;4.00;;;3.70;;
3627;SDS011;1830;49.000;12.074;2023-11-19T00:56:26;6.33;;;4.80;;
3627;SDS011;1830;49.000;12.074;2023-11-19T00:58:53;5.37;;;4.20;;
3627;SDS011;1830;49.000;12.074;2023-11-19T01:01:22;5.20;;;4.30;;
3627;SDS011;1830;49.000;12.074;2023-11-19T01:03:49;4.57;;;4.10;;
3627;SDS011;1830;49.000;12.074;2023-11-19T01:06:26;5.47;;;4.40;;
3627;SDS011;1830;49.000;12.074;2023-11-19T01:08:53;3.97;;;3.63;;
3627;SDS011;1830;49.000;12.074;2023-11-19T01:11:21;7.40;;;4.30;;
3627;SDS011;1830;49.000;12.074;2023-11-19T01:13:51;4.63;;;4.20;;
3627;SDS011;1830;49.000;12.074;2023-11-19T01:16:19;4.50;;;4.10;;
3627;SDS011;1830;49.000;12.074;2023-11-19T01:18:48;4.47;;;4.03;;
3627;SDS011;1830;49.000;12.074;2023-11-19T01:21:14;4.23;;;3.83;;
3627;SDS011;1830;49.000;12.074;2023-11-19T01:23:41;4.47;;;4.07;;
3627;SDS011;1830;49.000;12.074;2023-11-19T01:26:09;4.67;;;4.07;;
3627;SDS011;1830;49.000;12.074;2023-11-19T01:28:37;4.87;;;4.43;;
3627;SDS011;1830;49.000;12.074;2023-11-19T01:31:09;4.07;;;3.77;;
3627;SDS011;1830;49.000;12.074;2023-11-19T01:33:36;4.53;;;3.50;;
3627;SDS011;1830;49.000;12.074;2023-11-19T01:36:05;5.30;;;4.03;;
3627;SDS011;1830;49.000;12.074;2023-11-19T01:38:33;4.17;;;3.77;;
3627;SDS011;1830;49.000;12.074;2023-11-19T01:40:59;4.30;;;3.90;;
3627;SDS011;1830;49.000;12.074;2023-11-19T01:43:32;4.27;;;3.93;;
3627;SDS011;1830;49.000;12.074;2023-11-19T01:45:59;4.53;;;3.93;;
3627;SDS011;1830;49.000;12.074;2023-11-19T01:48:26;4.20;;;3.80;;
3627;SDS011;1830;49.000;12.074;2023-11-19T01:50:53;8.17;;;4.20;;
3627;SDS011;1830;49.000;12.074;2023-11-19T01:53:22;7.10;;;4.13;;
3627;SDS011;1830;49.000;12.074;2023-11-19T01:55:49;5.27;;;3.60;;
3627;SDS011;1830;49.000;12.074;2023-11-19T01:58:17;7.00;;;4.30;;
3627;SDS011;1830;49.000;12.074;2023-11-19T02:00:44;4.10;;;3.70;;
3627;SDS011;1830;49.000;12.074;2023-11-19T02:03:12;4.80;;;4.30;;
3627;SDS011;1830;49.000;12.074;2023-11-19T02:05:39;3.70;;;3.40;;
3627;SDS011;1830;49.000;12.074;2023-11-19T02:08:08;3.63;;;3.33;;
3627;SDS011;1830;49.000;12.074;2023-11-19T02:10:37;4.27;;;3.63;;
3627;SDS011;1830;49.000;12.074;2023-11-19T02:13:03;8.60;;;4.70;;
3627;SDS011;1830;49.000;12.074;2023-11-19T02:15:32;4.83;;;4.10;;
3627;SDS011;1830;49.000;12.074;2023-11-19T02:20:45;3.57;;;3.27;;
3627;SDS011;1830;49.000;12.074;2023-11-19T02:23:12;5.50;;;3.00;;
3627;SDS011;1830;49.000;12.074;2023-11-19T02:25:40;3.17;;;2.97;;
3627;SDS011;1830;49.000;12.074;2023-11-19T02:28:10;5.43;;;3.63;;
3627;SDS011;1830;49.000;12.074;2023-11-19T02:30:37;3.43;;;3.13;;
3627;SDS011;1830;49.000;12.074;2023-11-19T02:33:04;3.87;;;3.50;;
3627;SDS011;1830;49.000;12.074;2023-11-19T02:35:31;3.00;;;2.80;;
3627;SDS011;1830;49.000;12.074;2023-11-19T02:37:58;4.27;;;3.40;;
3627;SDS011;1830;49.000;12.074;2023-11-19T02:40:25;2.90;;;2.70;;
3627;SDS011;1830;49.000;12.074;2023-11-19T02:42:53;4.23;;;3.20;;
3627;SDS011;1830;49.000;12.074;2023-11-19T02:45:26;3.10;;;2.80;;
3627;SDS011;1830;49.000;12.074;2023-11-19T02:47:56;3.00;;;2.77;;
3627;SDS011;1830;49.000;12.074;2023-11-19T02:50:22;3.27;;;3.00;;
3627;SDS011;1830;49.000;12.074;2023-11-19T02:52:51;2.90;;;2.70;;
3627;SDS011;1830;49.000;12.074;2023-11-19T02:55:21;5.83;;;3.43;;
3627;SDS011;1830;49.000;12.074;2023-11-19T02:57:49;3.73;;;3.33;;
3627;SDS011;1830;49.000;12.074;2023-11-19T03:00:18;3.17;;;2.97;;
3627;SDS011;1830;49.000;12.074;2023-11-19T03:02:50;3.60;;;3.30;;
3627;SDS011;1830;49.000;12.074;2023-11-19T03:05:24;3.00;;;2.80;;
3627;SDS011;1830;49.000;12.074;2023-11-19T03:07:54;3.57;;;3.27;;
3627;SDS011;1830;49.000;12.074;2023-11-19T03:10:21;3.70;;;3.40;;
3627;SDS011;1830;49.000;12.074;2023-11-19T03:12:49;3.70;;;3.40;;
3627;SDS011;1830;49.000;12.074;2023-11-19T03:15:15;4.13;;;3.73;;
3627;SDS011;1830;49.000;12.074;2023-11-19T03:17:43;4.20;;;3.80;;
3627;SDS011;1830;49.000;12.074;2023-11-19T03:20:11;4.27;;;3.87;;
3627;SDS011;1830;49.000;12.074;2023-11-19T03:22:40;3.70;;;3.40;;
3627;SDS011;1830;49.000;12.074;2023-11-19T03:25:08;4.93;;;4.20;;
3627;SDS011;1830;49.000;12.074;2023-11-19T03:27:35;4.40;;;4.10;;
3627;SDS011;1830;49.000;12.074;2023-11-19T03:30:02;4.20;;;3.80;;
3627;SDS011;1830;49.000;12.074;2023-11-19T03:32:29;4.60;;;4.20;;
3627;SDS011;1830;49.000;12.074;2023-11-19T03:34:56;3.43;;;3.13;;
3627;SDS011;1830;49.000;12.074;2023-11-19T03:37:25;3.40;;;3.10;;
3627;SDS011;1830;49.000;12.074;2023-11-19T03:39:53;5.00;;;3.70;;
3627;SDS011;1830;49.000;12.074;2023-11-19T03:42:19;3.70;;;3.40;;
3627;SDS011;1830;49.000;12.074;2023-11-19T03:44:45;4.03;;;3.53;;
3627;SDS011;1830;49.000;12.074;2023-11-19T03:47:13;3.90;;;3.60;;
3627;SDS011;1830;49.000;12.074;2023-11-19T03:49:39;3.70;;;3.40;;
3627;SDS011;1830;49.000;12.074;2023-11-19T03:52:06;3.83;;;3.43;;
3627;SDS011;1830;49.000;12.074;2023-11-19T03:54:35;4.83;;;3.23;;
3627;SDS011;1830;49.000;12.074;2023-11-19T03:57:02;3.30;;;3.00;;
3627;SDS011;1830;49.000;12.074;2023-11-19T03:59:30;3.93;;;3.60;;
3627;SDS011;1830;49.000;12.074;2023-11-19T04:01:57;4.67;;;3.67;;
3627;SDS011;1830;49.000;12.074;2023-11-19T04:04:25;3.37;;;3.07;;
3627;SDS011;1830;49.000;12.074;2023-11-19T04:06:52;3.53;;;3.23;;
3627;SDS011;1830;49.000;12.074;2023-11-19T04:09:19;4.43;;;3.87;;
3627;SDS011;1830;49.000;12.074;2023-11-19T04:11:47;5.00;;;3.87;;
3627;SDS011;1830;49.000;12.074;2023-11-19T04:14:14;4.13;;;3.73;;
3627;SDS011;1830;49.000;12.074;2023-11-19T04:16:43;3.30;;;3.10;;
3627;SDS011;1830;49.000;12.074;2023-11-19T04:19:11;4.50;;;4.10;;
3627;SDS011;1830;49.000;12.074;2023-11-19T04:21:39;4.27;;;3.87;;
3627;SDS011;1830;49.000;12.074;2023-11-19T04:24:07;4.20;;;3.80;;
3627;SDS011;1830;49.000;12.074;2023-11-19T04:26:39;3.77;;;3.33;;
3627;SDS011;1830;49.000;12.074;2023-11-19T04:29:08;3.43;;;3.13;;
3627;SDS011;1830;49.000;12.074;2023-11-19T04:31:36;5.00;;;3.70;;
3627;SDS011;1830;49.000;12.074;2023-11-19T04:34:03;3.70;;;3.40;;
3627;SDS011;1830;49.000;12.074;2023-11-19T04:36:30;4.47;;;3.60;;
3627;SDS011;1830;49.000;12.074;2023-11-19T04:38:56;6.10;;;3.80;;
3627;SDS011;1830;49.000;12.074;2023-11-19T04:41:24;4.60;;;4.20;;
3627;SDS011;1830;49.000;12.074;2023-11-19T04:43:52;5.80;;;4.93;;
3627;SDS011;1830;49.000;12.074;2023-11-19T04:46:20;5.20;;;4.63;;
3627;SDS011;1830;49.000;12.074;2023-11-19T04:48:48;5.00;;;4.50;;
3627;SDS011;1830;49.000;12.074;2023-11-19T04:51:15;5.77;;;5.00;;
3627;SDS011;1830;49.000;12.074;2023-11-19T04:53:42;5.73;;;4.93;;
3627;SDS011;1830;49.000;12.074;2023-11-19T04:56:09;6.83;;;5.30;;
3627;SDS011;1830;49.000;12.074;2023-11-19T04:58:36;6.33;;;5.03;;
3627;SDS011;1830;49.000;12.074;2023-11-19T05:01:03;5.80;;;5.17;;
3627;SDS011;1830;49.000;12.074;2023-11-19T05:03:32;6.20;;;5.30;;
3627;SDS011;1830;49.000;12.074;2023-11-19T05:05:59;7.67;;;5.63;;
3627;SDS011;1830;49.000;12.074;2023-11-19T05:08:25;6.13;;;5.53;;
3627;SDS011;1830;49.000;12.074;2023-11-19T05:10:52;7.57;;;5.93;;
3627;SDS011;1830;49.000;12.074;2023-11-19T05:13:19;6.87;;;6.17;;
3627;SDS011;1830;49.000;12.074;2023-11-19T05:15:47;6.87;;;6.17;;
3627;SDS011;1830;49.000;12.074;2023-11-19T05:18:13;8.17;;;6.90;;
3627;SDS011;1830;49.000;12.074;2023-11-19T05:20:42;7.80;;;6.40;;
3627;SDS011;1830;49.000;12.074;2023-11-19T05:23:08;9.20;;;7.43;;
3627;SDS011;1830;49.000;12.074;2023-11-19T05:25:36;9.40;;;6.33;;
3627;SDS011;1830;49.000;12.074;2023-11-19T05:28:03;8.33;;;6.83;;
3627;SDS011;1830;49.000;12.074;2023-11-19T05:30:30;6.63;;;6.00;;
3627;SDS011;1830;49.000;12.074;2023-11-19T05:32:57;9.87;;;7.57;;
3627;SDS011;1830;49.000;12.074;2023-11-19T05:35:23;7.60;;;6.67;;
3627;SDS011;1830;49.000;12.074;2023-11-19T05:37:51;8.83;;;7.20;;
3627;SDS011;1830;49.000;12.074;2023-11-19T05:40:18;9.60;;;6.50;;
3627;SDS011;1830;49.000;12.074;2023-11-19T05:42:45;7.33;;;6.50;;
3627;SDS011;1830;49.000;12.074;2023-11-19T05:45:12;10.07;;;6.90;;
3627;SDS011;1830;49.000;12.074;2023-11-19T05:47:39;10.47;;;7.80;;
3627;SDS011;1830;49.000;12.074;2023-11-19T05:50:07;10.83;;;7.00;;
3627;SDS011;1830;49.000;12.074;2023-11-19T05:52:35;9.47;;;7.97;;
3627;SDS011;1830;49.000;12.074;2023-11-19T05:55:04;14.10;;;8.00;;
3627;SDS011;1830;49.000;12.074;2023-11-19T05:57:34;11.27;;;7.47;;
3627;SDS011;1830;49.000;12.074;2023-11-19T06:00:01;9.67;;;8.30;;
3627;SDS011;1830;49.000;12.074;2023-11-19T06:02:32;10.90;;;8.20;;
3627;SDS011;1830;49.000;12.074;2023-11-19T06:04:58;26.03;;;8.30;;
3627;SDS011;1830;49.000;12.074;2023-11-19T06:07:25;12.30;;;7.97;;
3627;SDS011;1830;49.000;12.074;2023-11-19T06:09:52;23.43;;;8.50;;
3627;SDS011;1830;49.000;12.074;2023-11-19T06:12:20;14.50;;;8.80;;
3627;SDS011;1830;49.000;12.074;2023-11-19T06:14:47;10.93;;;7.10;;
3627;SDS011;1830;49.000;12.074;2023-11-19T06:17:14;18.93;;;9.43;;
3627;SDS011;1830;49.000;12.074;2023-11-19T06:19:40;12.50;;;8.10;;
3627;SDS011;1830;49.000;12.074;2023-11-19T06:22:07;11.10;;;7.97;;
3627;SDS011;1830;49.000;12.074;2023-11-19T06:24:34;14.30;;;9.10;;
3627;SDS011;1830;49.000;12.074;2023-11-19T06:27:01;13.70;;;8.00;;
3627;SDS011;1830;49.000;12.074;2023-11-19T06:29:29;11.33;;;8.57;;
3627;SDS011;1830;49.000;12.074;2023-11-19T06:31:56;16.93;;;7.43;;
3627;SDS011;1830;49.000;12.074;2023-11-19T06:34:22;11.57;;;8.40;;
3627;SDS011;1830;49.000;12.074;2023-11-19T06:36:49;14.30;;;8.77;;
3627;SDS011;1830;49.000;12.074;2023-11-19T06:39:16;12.00;;;8.60;;
3627;SDS011;1830;49.000;12.074;2023-11-19T06:41:46;9.10;;;7.60;;
3627;SDS011;1830;49.000;12.074;2023-11-19T06:44:13;10.97;;;8.20;;
3627;SDS011;1830;49.000;12.074;2023-11-19T06:46:42;10.73;;;8.10;;
3627;SDS011;1830;49.000;12.074;2023-11-19T06:49:08;11.80;;;8.57;;
3627;SDS011;1830;49.000;12.074;2023-11-19T06:51:35;10.03;;;7.83;;
3627;SDS011;1830;49.000;12.074;2023-11-19T06:54:06;9.77;;;7.70;;
3627;SDS011;1830;49.000;12.074;2023-11-19T06:56:33;8.50;;;7.20;;
3627;SDS011;1830;49.000;12.074;2023-11-19T06:59:00;9.33;;;7.40;;
3627;SDS011;1830;49.000;12.074;2023-11-19T07:01:26;9.37;;;6.50;;
3627;SDS011;1830;49.000;12.074;2023-11-19T07:03:55;9.30;;;6.63;;
3627;SDS011;1830;49.000;12.074;2023-11-19T07:06:23;9.93;;;7.47;;
3627;SDS011;1830;49.000;12.074;2023-11-19T07:08:51;10.57;;;7.40;;
3627;SDS011;1830;49.000;12.074;2023-11-19T07:11:18;7.70;;;6.33;;
3627;SDS011;1830;49.000;12.074;2023-11-19T07:13:45;7.57;;;6.00;;
3627;SDS011;1830;49.000;12.074;2023-11-19T07:16:13;6.40;;;5.63;;
3627;SDS011;1830;49.000;12.074;2023-11-19T07:18:40;5.70;;;5.00;;
3627;SDS011;1830;49.000;12.074;2023-11-19T07:21:10;8.20;;;6.30;;
3627;SDS011;1830;49.000;12.074;2023-11-19T07:23:37;9.30;;;6.30;;
3627;SDS011;1830;49.000;12.074;2023-11-19T07:26:04;5.70;;;5.20;;
3627;SDS011;1830;49.000;12.074;2023-11-19T07:28:33;7.37;;;5.60;;
3627;SDS011;1830;49.000;12.074;2023-11-19T07:31:00;6.90;;;5.90;;
3627;SDS011;1830;49.000;12.074;2023-11-19T07:33:27;5.97;;;5.30;;
3627;SDS011;1830;49.000;12.074;2023-11-19T07:35:54;6.87;;;6.00;;
3627;SDS011;1830;49.000;12.074;2023-11-19T07:38:22;10.80;;;6.17;;
3627;SDS011;1830;49.000;12.074;2023-11-19T07:40:49;5.83;;;5.30;;
3627;SDS011;1830;49.000;12.074;2023-11-19T07:43:16;6.57;;;5.77;;
3627;SDS011;1830;49.000;12.074;2023-11-19T07:45:43;5.50;;;4.60;;
3627;SDS011;1830;49.000;12.074;2023-11-19T07:48:10;5.10;;;4.50;;
3627;SDS011;1830;49.000;12.074;2023-11-19T07:50:38;5.73;;;5.00;;
3627;SDS011;1830;49.000;12.074;2023-11-19T07:53:05;6.00;;;5.40;;
3627;SDS011;1830;49.000;12.074;2023-11-19T07:55:34;6.00;;;5.40;;
3627;SDS011;1830;49.000;12.074;2023-11-19T07:58:00;7.00;;;5.63;;
3627;SDS011;1830;49.000;12.074;2023-11-19T08:00:27;7.30;;;6.10;;
3627;SDS011;1830;49.000;12.074;2023-11-19T08:02:54;7.57;;;6.17;;
3627;SDS011;1830;49.000;12.074;2023-11-19T08:05:21;7.67;;;6.40;;
3627;SDS011;1830;49.000;12.074;2023-11-19T08:07:49;7.60;;;6.60;;
3627;SDS011;1830;49.000;12.074;2023-11-19T08:10:17;8.60;;;7.33;;
3627;SDS011;1830;49.000;12.074;2023-11-19T08:12:45;8.43;;;7.43;;
3627;SDS011;1830;49.000;12.074;2023-11-19T08:15:12;9.37;;;6.47;;
3627;SDS011;1830;49.000;12.074;2023-11-19T08:17:38;9.00;;;6.93;;
3627;SDS011;1830;49.000;12.074;2023-11-19T08:20:06;9.20;;;6.97;;
3627;SDS011;1830;49.000;12.074;2023-11-19T08:22:40;9.03;;;7.30;;
3627;SDS011;1830;49.000;12.074;2023-11-19T08:25:06;9.80;;;7.80;;
3627;SDS011;1830;49.000;12.074;2023-11-19T08:27:34;10.20;;;7.50;;
3627;SDS011;1830;49.000;12.074;2023-11-19T08:30:05;10.83;;;7.50;;
3627;SDS011;1830;49.000;12.074;2023-11-19T08:32:35;10.73;;;7.43;;
3627;SDS011;1830;49.000;12.074;2023-11-19T08:35:02;9.13;;;7.33;;
3627;SDS011;1830;49.000;12.074;2023-11-19T08:37:30;9.50;;;7.30;;
3627;SDS011;1830;49.000;12.074;2023-11-19T08:39:57;12.97;;;8.03;;
3627;SDS011;1830;49.000;12.074;2023-11-19T08:42:24;8.03;;;6.70;;
3627;SDS011;1830;49.000;12.074;2023-11-19T08:44:51;10.80;;;8.03;;
3627;SDS011;1830;49.000;12.074;2023-11-19T08:47:29;11.90;;;8.90;;
3627;SDS011;1830;49.000;12.074;2023-11-19T08:50:55;10.47;;;7.67;;
3627;SDS011;1830;49.000;12.074;2023-11-19T08:53:40;9.90;;;7.63;;
3627;SDS011;1830;49.000;12.074;2023-11-19T08:56:07;10.37;;;7.20;;
3627;SDS011;1830;49.000;12.074;2023-11-19T08:58:34;11.33;;;6.73;;
3627;SDS011;1830;49.000;12.074;2023-11-19T09:01:01;8.47;;;6.97;;
3627;SDS011;1830;49.000;12.074;2023-11-19T09:03:32;8.50;;;7.00;;
3627;SDS011;1830;49.000;12.074;2023-11-19T09:05:59;8.63;;;7.20;;
3627;SDS011;1830;49.000;12.074;2023-11-19T09:08:26;7.87;;;6.23;;
3627;SDS011;1830;49.000;12.074;2023-11-19T09:11:30;9.10;;;6.93;;
3627;SDS011;1830;49.000;12.074;2023-11-19T09:14:23;8.80;;;6.60;;
3627;SDS011;1830;49.000;12.074;2023-11-19T09:16:51;9.80;;;7.80;;
3627;SDS011;1830;49.000;12.074;2023-11-19T09:19:19;10.93;;;7.17;;
3627;SDS011;1830;49.000;12.074;2023-11-19T09:21:46;7.57;;;6.80;;
3627;SDS011;1830;49.000;12.074;2023-11-19T09:24:16;11.00;;;8.20;;
3627;SDS011;1830;49.000;12.074;2023-11-19T09:27:16;11.80;;;8.37;;
3627;SDS011;1830;49.000;12.074;2023-11-19T09:29:43;10.80;;;8.90;;
3627;SDS011;1830;49.000;12.074;2023-11-19T09:32:11;11.53;;;8.40;;
3627;SDS011;1830;49.000;12.074;2023-11-19T09:34:39;10.30;;;8.60;;
3627;SDS011;1830;49.000;12.074;2023-11-19T09:37:06;13.17;;;8.47;;
3627;SDS011;1830;49.000;12.074;2023-11-19T09:39:33;14.17;;;9.83;;
3627;SDS011;1830;49.000;12.074;2023-11-19T09:42:00;10.43;;;8.40;;
3627;SDS011;1830;49.000;12.074;2023-11-19T09:44:27;11.40;;;8.10;;
3627;SDS011;1830;49.000;12.074;2023-11-19T09:46:54;17.43;;;9.90;;
3627;SDS011;1830;49.000;12.074;2023-11-19T09:49:24;14.20;;;10.17;;
3627;SDS011;1830;49.000;12.074;2023-11-19T09:51:54;15.13;;;10.70;;
3627;SDS011;1830;49.000;12.074;2023-11-19T09:54:21;15.27;;;10.90;;
3627;SDS011;1830;49.000;12.074;2023-11-19T09:56:48;14.77;;;11.30;;
3627;SDS011;1830;49.000;12.074;2023-11-19T09:59:15;18.37;;;10.90;;
3627;SDS011;1830;49.000;12.074;2023-11-19T10:01:42;16.43;;;11.63;;
3627;SDS011;1830;49.000;12.074;2023-11-19T10:04:10;17.20;;;12.67;;
3627;SDS011;1830;49.000;12.074;2023-11-19T10:06:42;23.20;;;14.77;;
3627;SDS011;1830;49.000;12.074;2023-11-19T10:09:11;21.43;;;14.77;;
3627;SDS011;1830;49.000;12.074;2023-11-19T10:11:38;22.57;;;15.80;;
3627;SDS011;1830;49.000;12.074;2023-11-19T10:14:05;32.23;;;20.73;;
3627;SDS011;1830;49.000;12.074;2023-11-19T10:16:34;21.90;;;15.33;;
3627;SDS011;1830;49.000;12.074;2023-11-19T10:19:01;23.07;;;16.63;;
3627;SDS011;1830;49.000;12.074;2023-11-19T10:21:28;24.53;;;15.10;;
3627;SDS011;1830;49.000;12.074;2023-11-19T10:23:58;18.17;;;12.70;;
3627;SDS011;1830;49.000;12.074;2023-11-19T10:26:26;16.97;;;12.20;;
3627;SDS011;1830;49.000;12.074;2023-11-19T10:28:54;15.00;;;11.30;;
3627;SDS011;1830;49.000;12.074;2023-11-19T10:31:22;21.60;;;13.03;;
3627;SDS011;1830;49.000;12.074;2023-11-19T10:53:49;7.43;;;6.63;;
3627;SDS011;1830;49.000;12.074;2023-11-19T10:56:16;8.70;;;7.20;;
3627;SDS011;1830;49.000;12.074;2023-11-19T10:58:46;9.37;;;8.20;;
3627;SDS011;1830;49.000;12.074;2023-11-19T11:01:18;10.30;;;8.60;;
3627;SDS011;1830;49.000;12.074;2023-11-19T11:03:46;9.20;;;7.73;;
3627;SDS011;1830;49.000;12.074;2023-11-19T11:06:16;9.70;;;8.03;;
3627;SDS011;1830;49.000;12.074;2023-11-19T11:08:45;9.40;;;6.27;;
3627;SDS011;1830;49.000;12.074;2023-11-19T11:11:13;6.53;;;5.40;;
3627;SDS011;1830;49.000;12.074;2023-11-19T11:13:42;21.10;;;12.33;;
3627;SDS011;1830;49.000;12.074;2023-11-19T11:16:10;9.73;;;6.67;;
3627;SDS011;1830;49.000;12.074;2023-11-19T11:18:37;4.40;;;4.00;;
3627;SDS011;1830;49.000;12.074;2023-11-19T11:21:04;7.10;;;4.13;;
3627;SDS011;1830;49.000;12.074;2023-11-19T11:23:41;6.50;;;4.57;;
3627;SDS011;1830;49.000;12.074;2023-11-19T11:26:45;5.33;;;3.93;;
3627;SDS011;1830;49.000;12.074;2023-11-19T11:29:29;3.87;;;3.57;;
3627;SDS011;1830;49.000;12.074;2023-11-19T11:32:05;6.03;;;5.07;;
3627;SDS011;1830;49.000;12.074;2023-11-19T11:37:35;4.13;;;2.90;;
3627;SDS011;1830;49.000;12.074;2023-11-19T11:40:09;3.57;;;3.27;;
3627;SDS011;1830;49.000;12.074;2023-11-19T11:42:42;6.30;;;5.43;;
3627;SDS011;1830;49.000;12.074;2023-11-19T11:45:09;3.67;;;3.37;;
3627;SDS011;1830;49.000;12.074;2023-11-19T11:50:35;13.03;;;5.37;;
3627;SDS011;1830;49.000;12.074;2023-11-19T11:53:13;2.60;;;2.40;;
3627;SDS011;1830;49.000;12.074;2023-11-19T11:55:51;2.57;;;2.43;;
3627;SDS011;1830;49.000;12.074;2023-11-19T11:58:25;7.23;;;3.40;;
3627;SDS011;1830;49.000;12.074;2023-11-19T12:00:52;3.43;;;3.23;;
3627;SDS011;1830;49.000;12.074;2023-11-19T12:03:20;8.80;;;4.90;;
3627;SDS011;1830;49.000;12.074;2023-11-19T12:05:48;4.63;;;4.30;;
3627;SDS011;1830;49.000;12.074;2023-11-19T12:08:15;3.50;;;3.20;;
3627;SDS011;1830;49.000;12.074;2023-11-19T12:10:46;5.47;;;2.97;;
3627;SDS011;1830;49.000;12.074;2023-11-19T12:13:14;4.23;;;3.33;;
3627;SDS011;1830;49.000;12.074;2023-11-19T12:18:36;4.23;;;3.30;;
3627;SDS011;1830;49.000;12.074;2023-11-19T12:21:05;4.30;;;3.90;;
3627;SDS011;1830;49.000;12.074;2023-11-19T12:23:34;3.67;;;2.50;;
3627;SDS011;1830;49.000;12.074;2023-11-19T12:26:01;9.17;;;5.63;;
3627;SDS011;1830;49.000;12.074;2023-11-19T12:28:28;5.40;;;4.80;;
3627;SDS011;1830;49.000;12.074;2023-11-19T12:31:06;5.00;;;3.00;;
3627;SDS011;1830;49.000;12.074;2023-11-19T12:33:35;2.67;;;2.47;;
3627;SDS011;1830;49.000;12.074;2023-11-19T12:36:03;4.47;;;3.00;;
3627;SDS011;1830;49.000;12.074;2023-11-19T12:38:31;7.03;;;4.07;;
3627;SDS011;1830;49.000;12.074;2023-11-19T12:41:04;4.33;;;3.40;;
3627;SDS011;1830;49.000;12.074;2023-11-19T12:43:31;3.30;;;2.70;;
3627;SDS011;1830;49.000;12.074;2023-11-19T12:45:59;2.80;;;2.43;;
3627;SDS011;1830;49.000;12.074;2023-11-19T12:48:27;2.83;;;2.63;;
3627;SDS011;1830;49.000;12.074;2023-11-19T12:50:54;4.50;;;2.57;;
3627;SDS011;1830;49.000;12.074;2023-11-19T12:53:22;3.00;;;2.77;;
3627;SDS011;1830;49.000;12.074;2023-11-19T12:55:50;2.97;;;2.63;;
3627;SDS011;1830;49.000;12.074;2023-11-19T12:58:29;5.07;;;3.10;;
3627;SDS011;1830;49.000;12.074;2023-11-19T13:01:00;2.80;;;2.60;;
3627;SDS011;1830;49.000;12.074;2023-11-19T13:03:32;3.00;;;2.80;;
3627;SDS011;1830;49.000;12.074;2023-11-19T13:06:02;3.03;;;2.80;;
3627;SDS011;1830;49.000;12.074;2023-11-19T13:08:35;3.00;;;2.40;;
3627;SDS011;1830;49.000;12.074;2023-11-19T13:11:04;4.30;;;2.07;;
3627;SDS011;1830;49.000;12.074;2023-11-19T13:13:32;3.10;;;2.17;;
3627;SDS011;1830;49.000;12.074;2023-11-19T13:16:03;2.10;;;1.80;;
3627;SDS011;1830;49.000;12.074;2023-11-19T13:18:32;4.50;;;2.10;;
3627;SDS011;1830;49.000;12.074;2023-11-19T13:20:59;4.23;;;2.00;;
3627;SDS011;1830;49.000;12.074;2023-11-19T13:23:26;2.47;;;2.10;;
3627;SDS011;1830;49.000;12.074;2023-11-19T13:25:53;2.30;;;2.10;;
3627;SDS011;1830;49.000;12.074;2023-11-19T13:28:20;1.90;;;1.80;;
3627;SDS011;1830;49.000;12.074;2023-11-19T13:30:47;5.40;;;2.57;;
3627;SDS011;1830;49.000;12.074;2023-11-19T13:33:14;4.90;;;2.60;;
3627;SDS011;1830;49.000;12.074;2023-11-19T13:35:42;5.40;;;2.90;;
3627;SDS011;1830;49.000;12.074;2023-11-19T13:38:09;5.87;;;4.30;;
3627;SDS011;1830;49.000;12.074;2023-11-19T13:40:36;10.00;;;7.20;;
3627;SDS011;1830;49.000;12.074;2023-11-19T13:43:04;2.07;;;1.87;;
3627;SDS011;1830;49.000;12.074;2023-11-19T13:45:31;4.93;;;3.70;;
3627;SDS011;1830;49.000;12.074;2023-11-19T13:47:58;8.17;;;6.20;;
3627;SDS011;1830;49.000;12.074;2023-11-19T13:50:25;3.80;;;3.40;;
3627;SDS011;1830;49.000;12.074;2023-11-19T13:52:55;3.97;;;3.57;;
3627;SDS011;1830;49.000;12.074;2023-11-19T13:55:21;3.27;;;2.40;;
3627;SDS011;1830;49.000;12.074;2023-11-19T13:57:48;4.23;;;2.20;;
3627;SDS011;1830;49.000;12.074;2023-11-19T14:00:15;3.37;;;1.73;;
3627;SDS011;1830;49.000;12.074;2023-11-19T14:02:43;4.73;;;4.00;;
3627;SDS011;1830;49.000;12.074;2023-11-19T14:05:12;3.33;;;3.03;;
3627;SDS011;1830;49.000;12.074;2023-11-19T14:07:40;3.93;;;1.93;;
3627;SDS011;1830;49.000;12.074;2023-11-19T14:10:10;3.40;;;2.67;;
3627;SDS011;1830;49.000;12.074;2023-11-19T14:12:37;3.80;;;2.83;;
3627;SDS011;1830;49.000;12.074;2023-11-19T14:15:04;3.53;;;3.00;;
3627;SDS011;1830;49.000;12.074;2023-11-19T14:17:31;6.70;;;4.60;;
3627;SDS011;1830;49.000;12.074;2023-11-19T14:19:58;5.37;;;4.50;;
3627;SDS011;1830;49.000;12.074;2023-11-19T14:22:25;10.23;;;6.20;;
3627;SDS011;1830;49.000;12.074;2023-11-19T14:24:52;4.40;;;3.07;;
3627;SDS011;1830;49.000;12.074;2023-11-19T14:27:21;3.40;;;3.03;;
3627;SDS011;1830;49.000;12.074;2023-11-19T14:29:48;5.80;;;3.80;;
3627;SDS011;1830;49.000;12.074;2023-11-19T14:32:16;3.57;;;2.27;;
3627;SDS011;1830;49.000;12.074;2023-11-19T14:34:42;5.53;;;2.57;;
3627;SDS011;1830;49.000;12.074;2023-11-19T14:37:10;2.90;;;2.70;;
3627;SDS011;1830;49.000;12.074;2023-11-19T14:39:37;2.60;;;2.20;;
3627;SDS011;1830;49.000;12.074;2023-11-19T14:42:03;2.10;;;1.70;;
3627;SDS011;1830;49.000;12.074;2023-11-19T14:44:32;1.60;;;1.50;;
3627;SDS011;1830;49.000;12.074;2023-11-19T14:46:59;3.00;;;2.33;;
3627;SDS011;1830;49.000;12.074;2023-11-19T14:49:27;4.63;;;3.10;;
3627;SDS011;1830;49.000;12.074;2023-11-19T14:51:53;2.70;;;2.20;;
3627;SDS011;1830;49.000;12.074;2023-11-19T14:54:20;2.90;;;2.47;;
3627;SDS011;1830;49.000;12.074;2023-11-19T14:56:47;2.53;;;2.33;;
3627;SDS011;1830;49.000;12.074;2023-11-19T14:59:14;4.60;;;2.20;;
3627;SDS011;1830;49.000;12.074;2023-11-19T15:01:42;2.77;;;1.90;;
3627;SDS011;1830;49.000;12.074;2023-11-19T15:04:11;6.37;;;4.20;;
3627;SDS011;1830;49.000;12.074;2023-11-19T15:06:38;2.23;;;2.03;;
3627;SDS011;1830;49.000;12.074;2023-11-19T15:09:05;2.17;;;2.00;;
3627;SDS011;1830;49.000;12.074;2023-11-19T15:11:32;3.37;;;2.60;;
3627;SDS011;1830;49.000;12.074;2023-11-19T15:14:00;3.10;;;2.57;;
3627;SDS011;1830;49.000;12.074;2023-11-19T15:16:28;2.57;;;2.37;;
3627;SDS011;1830;49.000;12.074;2023-11-19T15:22:19;2.43;;;1.77;;
3627;SDS011;1830;49.000;12.074;2023-11-19T15:24:47;2.97;;;2.40;;
3627;SDS011;1830;49.000;12.074;2023-11-19T15:27:14;3.07;;;2.57;;
3627;SDS011;1830;49.000;12.074;2023-11-19T15:29:43;5.10;;;2.40;;
3627;SDS011;1830;49.000;12.074;2023-11-19T15:32:10;3.00;;;1.90;;
3627;SDS011;1830;49.000;12.074;2023-11-19T15:34:37;2.97;;;1.80;;
3627;SDS011;1830;49.000;12.074;2023-11-19T15:37:06;2.03;;;1.70;;
3627;SDS011;1830;49.000;12.074;2023-11-19T15:39:34;4.03;;;1.70;;
3627;SDS011;1830;49.000;12.074;2023-11-19T15:42:01;4.43;;;1.33;;